Main page
METAR-TAF:

METAR-TAF

Airports :

Millard Airport

Omaha, Nebraska, United States

latitude: 41-11-45N, longitude: 096-06-44W, elevation: 1050 ft

Current weather observation

The report was made 30 minutes ago, at 13:15 UTC
Wind 6 mph from the Southeast
Temperature 27°F
Humidity 86%
Pressure 30.11 in. Hg
Visibility: 5 miles
Clear sky
mist

METAR: KMLE 291315Z AUTO 14005KT 5SM BR CLR M03/M05 A3011 RMK AO2 T10321048

Time: 07:45 (13:45 UTC)


TAF: missing

Weather observations and forecasts of more than 4000 airports (METAR and TAF reports).

The available stations are represented by yellow and red dots on the map.

Hover mouse over dot to see the name of the station.

Then click to see weather observations and forecasts.

To change the map : click on the green buttons with a black cross to zoom in, on the green button with a dash to zoom out, or on the green arrows for adjacent maps.


METAR-TAF: